createdAt,value
2022-12-09T00:00:13.349Z,8.30
2022-12-09T00:01:13.245Z,7.90
2022-12-09T00:02:13.255Z,8.40
2022-12-09T00:03:13.288Z,9.30
2022-12-09T00:04:13.549Z,9.10
2022-12-09T00:05:13.282Z,7.60
2022-12-09T00:06:13.229Z,8.30
2022-12-09T00:07:13.280Z,8.20
2022-12-09T00:08:13.169Z,8.10
2022-12-09T00:09:13.178Z,8.70
2022-12-09T00:10:13.085Z,8.20
2022-12-09T00:11:13.046Z,7.90
2022-12-09T00:12:13.152Z,8.50
2022-12-09T00:13:13.141Z,8.00
2022-12-09T00:14:13.065Z,8.10
2022-12-09T00:15:13.071Z,8.50
2022-12-09T00:16:13.335Z,7.90
2022-12-09T00:17:13.371Z,8.20
2022-12-09T00:18:13.057Z,8.90
2022-12-09T00:19:13.008Z,9.10
2022-12-09T00:20:13.201Z,8.60
2022-12-09T00:21:12.987Z,9.00
2022-12-09T00:22:12.928Z,8.40
2022-12-09T00:23:12.928Z,9.30
2022-12-09T00:24:12.908Z,9.00
2022-12-09T00:25:12.912Z,8.60
2022-12-09T00:26:12.916Z,9.00
2022-12-09T00:27:12.908Z,9.30
2022-12-09T00:28:12.877Z,9.50
2022-12-09T00:29:13.113Z,9.20
2022-12-09T00:30:13.120Z,10.10
2022-12-09T00:31:12.936Z,9.10
2022-12-09T00:32:12.916Z,9.80
2022-12-09T00:33:12.923Z,9.90
2022-12-09T00:34:12.796Z,9.60
2022-12-09T00:35:12.778Z,9.20
2022-12-09T00:36:13.097Z,9.20
2022-12-09T00:37:12.751Z,9.20
2022-12-09T00:38:12.779Z,9.30
2022-12-09T00:39:12.760Z,9.10
2022-12-09T00:40:12.981Z,9.80
2022-12-09T00:41:12.749Z,9.30
2022-12-09T00:42:12.700Z,9.00
2022-12-09T00:43:12.766Z,9.30
2022-12-09T00:44:12.719Z,8.70
2022-12-09T00:45:12.768Z,9.70
2022-12-09T00:46:12.773Z,8.30
2022-12-09T00:47:12.766Z,8.90
2022-12-09T00:48:12.705Z,9.30
2022-12-09T00:49:12.694Z,8.80
2022-12-09T00:50:12.780Z,8.80
2022-12-09T00:51:12.600Z,9.10
2022-12-09T00:52:12.580Z,8.20
2022-12-09T00:53:12.571Z,8.10
2022-12-09T00:54:12.904Z,8.80
2022-12-09T00:55:12.815Z,9.10
2022-12-09T00:56:12.531Z,8.20
2022-12-09T00:57:12.683Z,7.60
2022-12-09T00:58:12.520Z,8.50
2022-12-09T00:59:12.516Z,8.50
2022-12-09T01:00:12.651Z,8.80
2022-12-09T01:01:12.676Z,8.60
2022-12-09T01:02:12.563Z,8.40
2022-12-09T01:03:12.765Z,8.50
2022-12-09T01:04:12.721Z,8.40
2022-12-09T01:05:12.580Z,8.10
2022-12-09T01:06:12.452Z,8.70
2022-12-09T01:07:12.511Z,8.60
2022-12-09T01:08:12.478Z,8.20
2022-12-09T01:09:12.449Z,8.60
2022-12-09T01:10:12.449Z,8.80
2022-12-09T01:11:12.646Z,8.50
2022-12-09T01:12:12.372Z,8.40
2022-12-09T01:13:12.569Z,9.10
2022-12-09T01:14:12.322Z,8.50
2022-12-09T01:15:12.317Z,8.40
2022-12-09T01:16:12.373Z,8.80
2022-12-09T01:17:12.415Z,8.20
2022-12-09T01:18:12.582Z,8.40
2022-12-09T01:19:12.440Z,8.30
2022-12-09T01:20:12.546Z,8.50
2022-12-09T01:21:12.241Z,8.10
2022-12-09T01:22:12.238Z,9.40
2022-12-09T01:23:12.225Z,8.30
2022-12-09T01:24:12.539Z,8.80
2022-12-09T01:25:12.382Z,8.10
2022-12-09T01:26:12.196Z,8.70
2022-12-09T01:27:12.262Z,8.50
2022-12-09T01:28:12.163Z,8.50
2022-12-09T01:29:12.177Z,8.70
2022-12-09T01:30:12.918Z,8.80
2022-12-09T01:31:12.200Z,8.20
2022-12-09T01:32:12.501Z,7.90
2022-12-09T01:33:12.213Z,7.40
2022-12-09T01:34:12.220Z,7.70
2022-12-09T01:35:12.307Z,8.70
2022-12-09T01:36:12.367Z,7.80
2022-12-09T01:37:12.295Z,7.70
2022-12-09T01:38:12.057Z,8.40
2022-12-09T01:39:12.063Z,8.00
2022-12-09T01:40:12.327Z,8.70
2022-12-09T01:41:12.219Z,8.10
2022-12-09T01:42:12.159Z,8.50
2022-12-09T01:43:12.294Z,8.30
2022-12-09T01:44:12.373Z,9.10
2022-12-09T01:45:11.972Z,8.10
2022-12-09T01:46:12.180Z,8.00
2022-12-09T01:47:12.086Z,8.80
2022-12-09T01:48:12.251Z,7.90
2022-12-09T01:49:11.978Z,7.30
2022-12-09T01:50:12.226Z,8.20
2022-12-09T01:51:11.990Z,7.90
2022-12-09T01:52:11.899Z,8.40
2022-12-09T01:53:11.941Z,8.40
2022-12-09T01:54:12.094Z,8.10
2022-12-09T01:55:11.909Z,7.80
2022-12-09T01:56:12.003Z,8.00
2022-12-09T01:57:11.999Z,7.90
2022-12-09T01:58:11.968Z,8.20
2022-12-09T01:59:11.829Z,8.60
2022-12-09T02:00:12.504Z,8.40
2022-12-09T02:01:12.083Z,8.80
2022-12-09T02:02:12.154Z,7.60
2022-12-09T02:03:11.912Z,7.80
2022-12-09T02:04:11.871Z,7.90
2022-12-09T02:05:12.056Z,9.00
2022-12-09T02:06:12.099Z,7.90
2022-12-09T02:07:11.832Z,9.20
2022-12-09T02:08:11.824Z,8.50
2022-12-09T02:09:11.868Z,9.70
2022-12-09T02:10:11.943Z,8.80
2022-12-09T02:11:11.962Z,9.70
2022-12-09T02:12:11.961Z,9.20
2022-12-09T02:13:11.760Z,9.80
2022-12-09T02:14:11.899Z,9.00
2022-12-09T02:15:11.820Z,8.80
2022-12-09T02:16:11.995Z,8.70
2022-12-09T02:17:11.665Z,8.90
2022-12-09T02:18:12.001Z,9.70
2022-12-09T02:19:11.578Z,9.30
2022-12-09T02:20:12.103Z,10.60
2022-12-09T02:21:11.906Z,10.20
2022-12-09T02:22:11.639Z,9.20
2022-12-09T02:23:11.537Z,9.90
2022-12-09T02:24:11.668Z,10.90
2022-12-09T02:25:11.527Z,10.00
2022-12-09T02:26:11.508Z,9.70
2022-12-09T02:27:11.516Z,9.40
2022-12-09T02:28:11.746Z,9.40
2022-12-09T02:29:11.488Z,9.50
2022-12-09T02:30:12.307Z,9.00
2022-12-09T02:31:11.921Z,8.90
2022-12-09T02:32:11.580Z,9.20
2022-12-09T02:33:11.541Z,9.80
2022-12-09T02:34:11.653Z,9.70
2022-12-09T02:35:11.403Z,9.60
2022-12-09T02:36:11.562Z,8.50
2022-12-09T02:37:11.418Z,9.00
2022-12-09T02:38:11.688Z,9.30
2022-12-09T02:39:11.692Z,9.40
2022-12-09T02:40:11.645Z,9.30
2022-12-09T02:41:11.688Z,9.40
2022-12-09T02:42:11.690Z,8.70
2022-12-09T02:43:11.542Z,9.00
2022-12-09T02:44:11.309Z,9.60
2022-12-09T02:45:11.708Z,9.50
2022-12-09T02:46:11.550Z,9.30
2022-12-09T02:47:11.285Z,9.50
2022-12-09T02:48:11.432Z,9.80
2022-12-09T02:49:11.364Z,9.60
2022-12-09T02:50:11.564Z,9.00
2022-12-09T02:51:11.237Z,8.00
2022-12-09T02:52:11.243Z,7.70
2022-12-09T02:53:11.189Z,7.70
2022-12-09T02:54:11.359Z,7.80
2022-12-09T02:55:11.169Z,9.10
2022-12-09T02:56:11.552Z,8.30
2022-12-09T02:57:11.200Z,9.80
2022-12-09T02:58:11.150Z,9.50
2022-12-09T02:59:11.331Z,9.70
2022-12-09T03:00:11.487Z,10.00
2022-12-09T03:01:11.445Z,9.20
2022-12-09T03:02:11.281Z,9.50
2022-12-09T03:03:11.491Z,8.70
2022-12-09T03:04:11.479Z,8.00
2022-12-09T03:05:11.313Z,9.30
2022-12-09T03:06:11.078Z,8.20
2022-12-09T03:07:11.145Z,8.70
2022-12-09T03:08:11.112Z,8.60
2022-12-09T03:09:11.205Z,8.80
2022-12-09T03:10:11.443Z,9.10
2022-12-09T03:11:11.272Z,8.60
2022-12-09T03:12:10.990Z,9.00
2022-12-09T03:13:11.245Z,9.20
2022-12-09T03:14:11.048Z,9.20
2022-12-09T03:15:10.960Z,8.90
2022-12-09T03:16:10.940Z,9.20
2022-12-09T03:17:11.311Z,9.50
2022-12-09T03:18:11.026Z,10.00
2022-12-09T03:19:11.220Z,9.70
2022-12-09T03:20:11.635Z,10.70
2022-12-09T03:21:10.911Z,11.20
2022-12-09T03:22:11.069Z,10.10
2022-12-09T03:23:10.997Z,10.80
2022-12-09T03:24:10.961Z,11.00
2022-12-09T03:25:11.021Z,10.10
2022-12-09T03:26:11.041Z,10.50
2022-12-09T03:27:11.019Z,11.50
2022-12-09T03:28:11.034Z,10.40
2022-12-09T03:29:10.827Z,10.40
2022-12-09T03:30:11.151Z,10.70
2022-12-09T03:31:10.771Z,10.20
2022-12-09T03:32:11.009Z,10.00
2022-12-09T03:33:10.794Z,10.30
2022-12-09T03:34:10.951Z,9.90
2022-12-09T03:35:10.742Z,11.00
2022-12-09T03:36:10.769Z,10.50
2022-12-09T03:37:10.892Z,10.00
2022-12-09T03:38:10.924Z,9.90
2022-12-09T03:39:10.686Z,9.30
2022-12-09T03:40:14.190Z,9.00
2022-12-09T03:41:10.836Z,9.20
2022-12-09T03:42:11.026Z,9.40
2022-12-09T03:43:10.957Z,9.20
2022-12-09T03:44:10.856Z,9.30
2022-12-09T03:45:10.904Z,9.90
2022-12-09T03:46:10.774Z,8.70
2022-12-09T03:47:10.685Z,9.40
2022-12-09T03:48:10.943Z,8.70
2022-12-09T03:49:10.574Z,9.60
2022-12-09T03:50:10.837Z,9.30
2022-12-09T03:51:10.586Z,8.70
2022-12-09T03:52:10.629Z,9.00
2022-12-09T03:53:10.594Z,9.00
2022-12-09T03:54:10.720Z,9.50
2022-12-09T03:55:10.645Z,9.20
2022-12-09T03:56:10.486Z,9.10
2022-12-09T03:57:14.089Z,8.60
2022-12-09T03:58:11.485Z,9.90
2022-12-09T03:59:10.625Z,9.90
2022-12-09T04:00:10.986Z,9.50
2022-12-09T04:01:10.496Z,9.60
2022-12-09T04:02:10.557Z,9.80
2022-12-09T04:03:10.857Z,9.50
2022-12-09T04:04:10.451Z,10.60
2022-12-09T04:05:10.522Z,10.20
2022-12-09T04:06:10.387Z,10.10
2022-12-09T04:07:10.368Z,10.50
2022-12-09T04:08:10.728Z,10.10
2022-12-09T04:09:10.679Z,9.70
2022-12-09T04:10:10.820Z,10.40
2022-12-09T04:11:10.630Z,10.70
2022-12-09T04:12:10.315Z,10.10
2022-12-09T04:13:10.507Z,10.20
2022-12-09T04:14:15.273Z,10.50
2022-12-09T04:15:11.297Z,10.30
2022-12-09T04:16:10.308Z,9.80
2022-12-09T04:17:10.447Z,10.40
2022-12-09T04:18:10.697Z,10.30
2022-12-09T04:19:10.302Z,11.00
2022-12-09T04:20:10.779Z,9.30
2022-12-09T04:21:10.489Z,10.30
2022-12-09T04:22:10.568Z,10.10
2022-12-09T04:23:10.583Z,10.90
2022-12-09T04:24:10.193Z,9.80
2022-12-09T04:25:10.354Z,11.10
2022-12-09T04:26:10.501Z,11.00
2022-12-09T04:27:10.548Z,10.60
2022-12-09T04:28:10.297Z,10.40
2022-12-09T04:29:10.153Z,11.00
2022-12-09T04:30:10.422Z,10.50
2022-12-09T04:31:10.207Z,10.00
2022-12-09T04:32:10.299Z,9.90
2022-12-09T04:33:10.116Z,10.20
2022-12-09T04:34:10.764Z,10.30
2022-12-09T04:35:10.070Z,9.80
2022-12-09T04:36:10.313Z,9.80
2022-12-09T04:37:10.049Z,9.60
2022-12-09T04:38:10.186Z,10.60
2022-12-09T04:39:10.668Z,10.20
2022-12-09T04:40:10.225Z,9.60
2022-12-09T04:41:09.987Z,9.90
2022-12-09T04:42:10.414Z,9.40
2022-12-09T04:43:10.122Z,10.00
2022-12-09T04:44:10.173Z,9.80
2022-12-09T04:45:09.993Z,10.50
2022-12-09T04:46:10.325Z,10.40
2022-12-09T04:47:09.983Z,10.20
2022-12-09T04:48:10.104Z,10.20
2022-12-09T04:49:10.140Z,10.30
2022-12-09T04:50:10.405Z,10.40
2022-12-09T04:51:09.911Z,10.10
2022-12-09T04:52:09.869Z,10.50
2022-12-09T04:53:09.882Z,9.40
2022-12-09T04:54:09.848Z,10.30
2022-12-09T04:55:09.923Z,10.20
2022-12-09T04:56:10.059Z,10.00
2022-12-09T04:57:09.888Z,11.40
2022-12-09T04:58:10.234Z,10.40
2022-12-09T04:59:09.808Z,10.10
2022-12-09T05:00:10.375Z,10.30
2022-12-09T05:01:09.934Z,11.60
2022-12-09T05:02:09.909Z,10.50
2022-12-09T05:03:10.010Z,10.50
2022-12-09T05:04:10.262Z,10.60
2022-12-09T05:05:09.900Z,10.40
2022-12-09T05:06:10.181Z,11.80
2022-12-09T05:07:09.851Z,10.80
2022-12-09T05:08:09.839Z,10.90
2022-12-09T05:09:09.950Z,11.50
2022-12-09T05:10:09.899Z,10.70
2022-12-09T05:11:10.004Z,10.50
2022-12-09T05:12:09.907Z,10.90
2022-12-09T05:13:09.844Z,11.40
2022-12-09T05:14:09.693Z,10.20
2022-12-09T05:15:09.854Z,10.70
2022-12-09T05:16:15.682Z,10.20
2022-12-09T05:17:10.918Z,12.20
2022-12-09T05:18:09.744Z,12.00
2022-12-09T05:19:09.796Z,11.20
2022-12-09T05:20:09.829Z,11.70
2022-12-09T05:21:09.803Z,11.60
2022-12-09T05:22:09.638Z,11.90
2022-12-09T05:23:10.218Z,10.30
2022-12-09T05:24:09.525Z,10.60
2022-12-09T05:25:09.609Z,11.20
2022-12-09T05:26:09.552Z,11.80
2022-12-09T05:27:09.839Z,10.20
2022-12-09T05:28:09.534Z,11.20
2022-12-09T05:29:09.548Z,11.10
2022-12-09T05:30:10.157Z,11.10
2022-12-09T05:31:09.943Z,11.70
2022-12-09T05:32:09.807Z,10.80
2022-12-09T05:33:09.486Z,11.00
2022-12-09T05:34:09.580Z,11.80
2022-12-09T05:35:09.754Z,11.20
2022-12-09T05:36:09.444Z,11.70
2022-12-09T05:37:09.556Z,11.50
2022-12-09T05:38:09.562Z,11.70
2022-12-09T05:39:09.438Z,11.80
2022-12-09T05:40:09.693Z,11.80
2022-12-09T05:41:09.370Z,11.70
2022-12-09T05:42:09.442Z,12.10
2022-12-09T05:43:09.399Z,11.40
2022-12-09T05:44:09.515Z,11.90
2022-12-09T05:45:09.578Z,11.60
2022-12-09T05:46:09.401Z,12.00
2022-12-09T05:47:09.347Z,12.40
2022-12-09T05:48:09.568Z,11.00
2022-12-09T05:49:09.538Z,10.70
2022-12-09T05:50:09.811Z,11.10
2022-12-09T05:51:09.318Z,11.20
2022-12-09T05:52:09.357Z,11.40
2022-12-09T05:53:09.506Z,11.00
2022-12-09T05:54:09.645Z,10.90
2022-12-09T05:55:09.526Z,12.30
2022-12-09T05:56:09.264Z,11.90
2022-12-09T05:57:09.332Z,11.10
2022-12-09T05:58:09.221Z,10.90
2022-12-09T05:59:09.287Z,11.60
2022-12-09T06:00:09.635Z,11.90
2022-12-09T06:01:09.515Z,11.70
2022-12-09T06:02:10.333Z,11.90
2022-12-09T06:03:09.506Z,11.50
2022-12-09T06:04:09.370Z,11.60
2022-12-09T06:05:09.468Z,11.80
2022-12-09T06:06:09.457Z,11.90
2022-12-09T06:07:09.432Z,11.70
2022-12-09T06:08:09.272Z,12.10
2022-12-09T06:09:09.344Z,12.70
2022-12-09T06:10:09.932Z,12.30
2022-12-09T06:11:09.513Z,11.50
2022-12-09T06:12:09.069Z,12.30
2022-12-09T06:13:09.362Z,11.90
2022-12-09T06:14:09.039Z,12.20
2022-12-09T06:15:10.597Z,11.80
2022-12-09T06:16:09.274Z,12.80
2022-12-09T06:17:09.065Z,11.70
2022-12-09T06:18:09.098Z,11.90
2022-12-09T06:19:09.381Z,12.70
2022-12-09T06:20:09.887Z,12.70
2022-12-09T06:21:09.358Z,12.20
2022-12-09T06:22:09.456Z,12.80
2022-12-09T06:23:09.139Z,12.90
2022-12-09T06:24:09.238Z,12.40
2022-12-09T06:25:09.858Z,13.10
2022-12-09T06:26:08.900Z,12.40
2022-12-09T06:27:09.838Z,13.50
2022-12-09T06:28:10.055Z,12.20
2022-12-09T06:29:08.846Z,13.30
2022-12-09T06:30:08.912Z,13.60
2022-12-09T06:31:08.959Z,12.40
2022-12-09T06:32:09.137Z,13.00
2022-12-09T06:33:29.142Z,12.70
2022-12-09T06:34:09.854Z,12.70
2022-12-09T06:35:09.559Z,12.70
2022-12-09T06:36:09.060Z,12.70
2022-12-09T06:37:08.799Z,12.80
2022-12-09T06:38:08.730Z,13.10
2022-12-09T06:39:11.028Z,12.20
2022-12-09T06:40:09.584Z,12.00
2022-12-09T06:41:09.287Z,12.30
2022-12-09T06:42:08.981Z,12.10
2022-12-09T06:43:08.758Z,12.50
2022-12-09T06:44:08.633Z,12.10
2022-12-09T06:45:09.522Z,12.90
2022-12-09T06:46:08.900Z,12.30
2022-12-09T06:47:08.643Z,12.00
2022-12-09T06:48:08.662Z,12.30
2022-12-09T06:49:08.780Z,12.00
2022-12-09T06:50:09.038Z,12.50
2022-12-09T06:51:08.928Z,12.20
2022-12-09T06:52:08.571Z,12.20
2022-12-09T06:53:08.940Z,12.70
2022-12-09T06:54:08.955Z,14.20
2022-12-09T06:55:08.902Z,12.90
2022-12-09T06:56:12.217Z,13.40
2022-12-09T06:57:08.533Z,13.20
2022-12-09T06:58:08.859Z,13.90
2022-12-09T06:59:08.630Z,13.60
2022-12-09T07:00:08.559Z,13.40
2022-12-09T07:01:08.834Z,14.10
2022-12-09T07:02:08.981Z,12.90
2022-12-09T07:03:08.560Z,12.40
2022-12-09T07:04:08.654Z,12.60
2022-12-09T07:05:08.892Z,13.10
2022-12-09T07:06:08.611Z,13.10
2022-12-09T07:07:08.899Z,12.00
2022-12-09T07:08:08.607Z,12.60
2022-12-09T07:09:08.781Z,12.10
2022-12-09T07:10:08.715Z,12.00
2022-12-09T07:11:08.857Z,12.10
2022-12-09T07:12:08.618Z,12.70
2022-12-09T07:13:08.585Z,11.60
2022-12-09T07:14:08.763Z,12.00
2022-12-09T07:15:08.837Z,12.60
2022-12-09T07:16:08.718Z,12.30
2022-12-09T07:17:08.518Z,12.90
2022-12-09T07:18:08.578Z,13.80
2022-12-09T07:19:08.644Z,12.50
2022-12-09T07:20:08.458Z,12.60
2022-12-09T07:21:08.677Z,11.70
2022-12-09T07:22:08.214Z,12.40
2022-12-09T07:23:08.249Z,12.90
2022-12-09T07:24:08.368Z,13.00
2022-12-09T07:25:08.864Z,12.70
2022-12-09T07:26:08.220Z,12.20
2022-12-09T07:27:10.754Z,12.70
2022-12-09T07:28:09.187Z,12.00
2022-12-09T07:29:08.140Z,12.80
2022-12-09T07:30:08.237Z,12.50
2022-12-09T07:31:08.336Z,13.20
2022-12-09T07:32:08.476Z,12.20
2022-12-09T07:33:08.504Z,12.90
2022-12-09T07:34:08.543Z,12.00
2022-12-09T07:35:08.548Z,13.00
2022-12-09T07:36:08.441Z,12.20
2022-12-09T07:37:08.450Z,12.80
2022-12-09T07:38:09.216Z,11.90
2022-12-09T07:39:08.456Z,12.60
2022-12-09T07:40:08.130Z,12.70
2022-12-09T07:41:08.264Z,12.40
2022-12-09T07:42:08.294Z,12.40
2022-12-09T07:43:08.276Z,13.00
2022-12-09T07:44:08.049Z,12.40
2022-12-09T07:45:08.217Z,12.20
2022-12-09T07:46:08.409Z,12.70
2022-12-09T07:47:08.471Z,12.90
2022-12-09T07:48:08.062Z,11.90
2022-12-09T07:49:08.366Z,12.90
2022-12-09T07:50:08.378Z,12.50
2022-12-09T07:51:08.053Z,11.70
2022-12-09T07:52:07.881Z,12.40
2022-12-09T07:53:08.092Z,11.90
2022-12-09T07:54:08.086Z,12.10
2022-12-09T07:55:08.105Z,12.50
2022-12-09T07:56:07.973Z,12.50
2022-12-09T07:57:08.059Z,12.20
2022-12-09T07:58:07.870Z,12.40
2022-12-09T07:59:07.883Z,12.20
2022-12-09T08:00:08.081Z,11.50
2022-12-09T08:01:08.201Z,11.80
2022-12-09T08:02:07.811Z,12.10
2022-12-09T08:03:08.131Z,11.90
2022-12-09T08:04:08.220Z,11.30
2022-12-09T08:05:08.632Z,11.60
2022-12-09T08:06:07.880Z,12.60
2022-12-09T08:07:08.172Z,11.60
2022-12-09T08:08:08.288Z,12.60
2022-12-09T08:09:08.230Z,12.90
2022-12-09T08:10:07.828Z,12.80
2022-12-09T08:11:08.000Z,12.70
2022-12-09T08:12:07.769Z,13.60
2022-12-09T08:13:07.915Z,12.10
2022-12-09T08:14:12.212Z,12.70
2022-12-09T08:15:09.516Z,12.30
2022-12-09T08:16:07.861Z,14.00
2022-12-09T08:17:08.086Z,12.90
2022-12-09T08:18:07.835Z,12.40
2022-12-09T08:19:07.971Z,12.50
2022-12-09T08:20:08.299Z,12.60
2022-12-09T08:21:07.645Z,13.00
2022-12-09T08:22:07.625Z,12.80
2022-12-09T08:23:07.630Z,11.80
2022-12-09T08:24:07.857Z,12.80
2022-12-09T08:25:08.346Z,12.80
2022-12-09T08:26:07.635Z,11.90
2022-12-09T08:27:07.634Z,12.60
2022-12-09T08:28:07.809Z,12.70
2022-12-09T08:29:08.139Z,12.50
2022-12-09T08:30:08.201Z,11.80
2022-12-09T08:31:08.179Z,12.70
2022-12-09T08:32:07.624Z,12.80
2022-12-09T08:33:07.503Z,11.40
2022-12-09T08:34:07.992Z,12.20
2022-12-09T08:35:07.574Z,12.70
2022-12-09T08:36:07.721Z,11.50
2022-12-09T08:37:07.452Z,12.10
2022-12-09T08:38:07.418Z,12.00
2022-12-09T08:39:07.784Z,12.30
2022-12-09T08:40:07.820Z,12.30
2022-12-09T08:41:07.419Z,19.30
2022-12-09T08:42:07.445Z,11.00
2022-12-09T08:43:07.645Z,11.50
2022-12-09T08:44:07.344Z,10.90
2022-12-09T08:45:07.382Z,11.90
2022-12-09T08:46:07.489Z,10.60
2022-12-09T08:47:07.560Z,12.00
2022-12-09T08:48:07.780Z,11.80
2022-12-09T08:49:07.506Z,11.10
2022-12-09T08:50:07.834Z,10.70
2022-12-09T08:51:07.252Z,10.10
2022-12-09T08:52:07.310Z,10.20
2022-12-09T08:53:07.339Z,10.30
2022-12-09T08:54:07.640Z,9.90
2022-12-09T08:55:07.214Z,10.80
2022-12-09T08:56:07.154Z,10.00
2022-12-09T08:57:07.186Z,10.50
2022-12-09T08:58:07.238Z,8.70
2022-12-09T08:59:07.563Z,9.10
2022-12-09T09:00:08.062Z,8.30
2022-12-09T09:01:07.326Z,8.30
2022-12-09T09:02:07.621Z,9.40
2022-12-09T09:03:07.651Z,9.60
2022-12-09T09:04:07.855Z,9.30
2022-12-09T09:05:07.480Z,8.90
2022-12-09T09:06:10.485Z,9.20
2022-12-09T09:07:07.382Z,8.90
2022-12-09T09:08:07.462Z,9.30
2022-12-09T09:09:07.180Z,7.60
2022-12-09T09:10:07.726Z,7.90
2022-12-09T09:11:07.111Z,7.50
2022-12-09T09:12:06.992Z,8.30
2022-12-09T09:13:07.013Z,7.70
2022-12-09T09:14:07.051Z,7.80
2022-12-09T09:15:07.625Z,7.70
2022-12-09T09:16:08.077Z,7.80
2022-12-09T09:17:07.164Z,7.80
2022-12-09T09:18:07.059Z,8.70
2022-12-09T09:19:07.099Z,8.70
2022-12-09T09:20:07.914Z,8.70
2022-12-09T09:21:06.946Z,8.00
2022-12-09T09:22:06.931Z,8.50
2022-12-09T09:23:06.960Z,7.90
2022-12-09T09:24:07.182Z,8.00
2022-12-09T09:25:07.291Z,7.80
2022-12-09T09:26:07.023Z,8.90
2022-12-09T09:27:07.196Z,8.40
2022-12-09T09:28:06.954Z,8.40
2022-12-09T09:29:06.770Z,8.10
2022-12-09T09:30:07.826Z,8.20
2022-12-09T09:31:07.372Z,7.90
2022-12-09T09:32:06.888Z,7.80
2022-12-09T09:33:07.005Z,7.90
2022-12-09T09:34:07.347Z,8.20
2022-12-09T09:35:07.144Z,8.50
2022-12-09T09:36:10.235Z,7.90
2022-12-09T09:37:06.863Z,7.80
2022-12-09T09:38:06.925Z,8.10
2022-12-09T09:39:06.938Z,7.20
2022-12-09T09:40:07.236Z,7.50
2022-12-09T09:41:06.899Z,7.70
2022-12-09T09:42:09.052Z,7.60
2022-12-09T09:43:07.023Z,7.80
2022-12-09T09:44:06.662Z,6.90
2022-12-09T09:45:06.837Z,6.60
2022-12-09T09:46:07.065Z,7.10
2022-12-09T09:47:07.001Z,6.90
2022-12-09T09:48:06.713Z,7.20
2022-12-09T09:49:06.856Z,8.00
2022-12-09T09:50:07.626Z,6.70
2022-12-09T09:51:06.666Z,7.10
2022-12-09T09:52:06.598Z,7.20
2022-12-09T09:53:06.673Z,6.90
2022-12-09T09:54:08.950Z,6.30
2022-12-09T09:55:06.885Z,6.10
2022-12-09T09:56:06.556Z,6.50
2022-12-09T09:57:06.990Z,6.20
2022-12-09T09:58:06.652Z,6.80
2022-12-09T09:59:06.720Z,6.40
2022-12-09T10:00:09.690Z,6.50
2022-12-09T10:01:06.655Z,7.60
2022-12-09T10:02:06.702Z,6.30
2022-12-09T10:03:06.992Z,6.60
2022-12-09T10:04:06.715Z,6.90
2022-12-09T10:05:06.913Z,7.70
2022-12-09T10:06:06.887Z,7.90
2022-12-09T10:07:08.351Z,7.70
2022-12-09T10:08:06.553Z,7.80
2022-12-09T10:09:06.748Z,7.70
2022-12-09T10:10:06.920Z,8.10
2022-12-09T10:11:06.963Z,7.80
2022-12-09T10:12:06.576Z,7.30
2022-12-09T10:13:10.796Z,7.00
2022-12-09T10:14:08.032Z,6.80
2022-12-09T10:15:06.394Z,6.80
2022-12-09T10:16:06.509Z,7.50
2022-12-09T10:17:06.617Z,7.30
2022-12-09T10:18:06.299Z,7.20
2022-12-09T10:19:09.365Z,8.10
2022-12-09T10:20:07.016Z,6.70
2022-12-09T10:21:06.671Z,6.60
2022-12-09T10:22:06.572Z,7.10
2022-12-09T10:23:06.783Z,7.20
2022-12-09T10:24:06.333Z,6.70
2022-12-09T10:25:06.445Z,6.20
2022-12-09T10:26:06.316Z,7.10
2022-12-09T10:27:06.264Z,6.90
2022-12-09T10:28:06.545Z,6.20
2022-12-09T10:29:06.377Z,6.70
2022-12-09T10:30:06.982Z,7.90
2022-12-09T10:31:06.350Z,7.50
2022-12-09T10:32:06.622Z,8.00
2022-12-09T10:33:06.576Z,7.50
2022-12-09T10:34:06.549Z,7.80
2022-12-09T10:35:06.289Z,7.00
2022-12-09T10:36:06.385Z,7.50
2022-12-09T10:37:06.459Z,7.20
2022-12-09T10:38:06.257Z,7.70
2022-12-09T10:39:06.091Z,7.40
2022-12-09T10:40:06.758Z,7.40
2022-12-09T10:41:06.478Z,7.50
2022-12-09T10:42:06.245Z,8.00
2022-12-09T10:43:06.396Z,7.20
2022-12-09T10:44:05.957Z,7.20
2022-12-09T10:45:06.135Z,7.10
2022-12-09T10:46:17.770Z,7.30
2022-12-09T10:47:11.026Z,7.20
2022-12-09T10:48:05.955Z,6.10
2022-12-09T10:49:06.034Z,6.50
2022-12-09T10:50:06.471Z,6.50
2022-12-09T10:51:06.072Z,6.80
2022-12-09T10:52:06.335Z,7.70
2022-12-09T10:53:06.122Z,7.00
2022-12-09T10:54:05.836Z,6.70
2022-12-09T10:55:06.072Z,6.90
2022-12-09T10:56:05.889Z,7.50
2022-12-09T10:57:05.872Z,7.30
2022-12-09T10:58:05.844Z,6.70
2022-12-09T10:59:06.127Z,7.20
2022-12-09T11:00:06.493Z,7.20
2022-12-09T11:01:06.167Z,7.00
2022-12-09T11:02:06.205Z,6.80
2022-12-09T11:03:06.222Z,7.10
2022-12-09T11:04:05.785Z,6.70
2022-12-09T11:05:05.983Z,7.10
2022-12-09T11:06:06.243Z,7.00
2022-12-09T11:07:06.046Z,6.80
2022-12-09T11:08:06.002Z,6.50
2022-12-09T11:09:06.332Z,6.70
2022-12-09T11:10:05.819Z,6.50
2022-12-09T11:11:06.098Z,6.40
2022-12-09T11:12:05.871Z,6.30
2022-12-09T11:13:06.258Z,6.50
2022-12-09T11:14:05.670Z,6.10
2022-12-09T11:15:05.926Z,6.40
2022-12-09T11:16:06.206Z,5.80
2022-12-09T11:17:05.717Z,5.80
2022-12-09T11:18:05.991Z,18.80
2022-12-09T11:19:05.966Z,16.30
2022-12-09T11:20:05.783Z,7.30
2022-12-09T11:21:05.935Z,7.10
2022-12-09T11:22:05.649Z,6.40
2022-12-09T11:23:05.809Z,6.00
2022-12-09T11:24:05.939Z,6.60
2022-12-09T11:25:06.096Z,7.10
2022-12-09T11:26:06.005Z,6.70
2022-12-09T11:27:05.786Z,6.30
2022-12-09T11:28:05.513Z,6.10
2022-12-09T11:29:05.465Z,7.00
2022-12-09T11:30:11.243Z,6.90
2022-12-09T11:31:29.100Z,7.00
2022-12-09T11:32:06.545Z,7.50
2022-12-09T11:33:05.470Z,6.50
2022-12-09T11:34:05.682Z,6.20
2022-12-09T11:35:05.812Z,5.40
2022-12-09T11:37:05.315Z,5.60
2022-12-09T11:38:05.295Z,5.20
2022-12-09T11:39:05.276Z,5.50
2022-12-09T11:40:05.688Z,5.60
2022-12-09T11:41:05.294Z,6.90
2022-12-09T11:42:05.279Z,6.10
2022-12-09T11:43:05.251Z,6.50
2022-12-09T11:44:05.225Z,6.70
2022-12-09T11:45:05.208Z,6.50
2022-12-09T11:46:05.226Z,6.60
2022-12-09T11:47:05.213Z,6.10
2022-12-09T11:48:31.852Z,6.70
2022-12-09T11:49:06.167Z,6.20
2022-12-09T11:50:05.818Z,5.60
2022-12-09T11:51:05.153Z,4.90
2022-12-09T11:52:05.198Z,5.10
2022-12-09T11:53:05.146Z,5.80
2022-12-09T11:54:05.111Z,5.40
2022-12-09T11:55:05.181Z,5.30
2022-12-09T11:56:05.127Z,5.00
2022-12-09T11:57:05.099Z,4.50
2022-12-09T11:58:05.060Z,4.70
2022-12-09T11:59:05.085Z,5.00
2022-12-09T12:00:05.302Z,5.60
2022-12-09T12:01:05.056Z,5.60
2022-12-09T12:02:05.081Z,5.70
2022-12-09T12:03:05.064Z,5.70
2022-12-09T12:04:05.039Z,5.20
2022-12-09T12:05:04.982Z,5.70
2022-12-09T12:06:04.986Z,5.70
2022-12-09T12:07:04.975Z,6.30
2022-12-09T12:08:05.088Z,5.80
2022-12-09T12:09:04.963Z,5.70
2022-12-09T12:10:05.065Z,5.80
2022-12-09T12:11:04.922Z,6.30
2022-12-09T12:12:04.909Z,6.10
2022-12-09T12:13:04.896Z,5.60
2022-12-09T12:14:04.909Z,5.80
2022-12-09T12:15:04.888Z,5.80
2022-12-09T12:16:04.870Z,6.50
2022-12-09T12:17:04.882Z,5.50
2022-12-09T12:18:04.842Z,5.90
2022-12-09T12:19:04.824Z,4.80
2022-12-09T12:20:05.241Z,4.80
2022-12-09T12:21:04.803Z,4.90
2022-12-09T12:22:04.797Z,4.80
2022-12-09T12:23:04.780Z,5.40
2022-12-09T12:24:04.780Z,4.70
2022-12-09T12:25:05.191Z,5.30
2022-12-09T12:26:04.770Z,5.00
2022-12-09T12:27:04.739Z,4.80
2022-12-09T12:28:04.770Z,4.70
2022-12-09T12:29:07.557Z,5.60
2022-12-09T12:30:04.948Z,5.00
2022-12-09T12:31:04.728Z,5.60
2022-12-09T12:32:04.708Z,6.20
2022-12-09T12:33:52.925Z,5.60
2022-12-09T12:34:24.222Z,6.40
2022-12-09T12:35:05.865Z,6.30
2022-12-09T12:36:04.630Z,6.60
2022-12-09T12:37:04.649Z,6.80
2022-12-09T12:38:04.602Z,7.10
2022-12-09T12:39:04.611Z,6.70
2022-12-09T12:40:04.840Z,7.60
2022-12-09T12:41:04.585Z,7.50
2022-12-09T12:42:04.559Z,7.00
2022-12-09T12:43:04.566Z,7.00
2022-12-09T12:44:04.533Z,6.70
2022-12-09T12:45:04.540Z,7.10
2022-12-09T12:46:04.598Z,6.70
2022-12-09T12:47:05.451Z,7.60
2022-12-09T12:48:04.574Z,7.40
2022-12-09T12:49:04.490Z,7.10
2022-12-09T12:50:04.734Z,7.20
2022-12-09T12:51:04.454Z,7.40
2022-12-09T12:52:04.451Z,7.30
2022-12-09T12:53:04.441Z,7.00
2022-12-09T12:54:04.483Z,7.70
2022-12-09T12:55:04.404Z,7.10
2022-12-09T12:56:04.440Z,7.50
2022-12-09T12:57:09.432Z,7.20
2022-12-09T12:58:05.412Z,6.70
2022-12-09T12:59:04.371Z,9.70
2022-12-09T13:00:04.552Z,10.00
2022-12-09T13:01:04.456Z,9.30
2022-12-09T13:02:04.376Z,8.40
2022-12-09T13:03:09.015Z,10.60
2022-12-09T13:04:05.325Z,9.20
2022-12-09T13:05:04.316Z,9.70
2022-12-09T13:06:04.290Z,9.50
2022-12-09T13:07:04.264Z,7.70
2022-12-09T13:08:04.314Z,8.80
2022-12-09T13:09:04.252Z,9.40